sensor_id;sensor_type;location;lat;lon;timestamp;P1;durP1;ratioP1;P2;durP2;ratioP2
29384;SDS011;16367;48.736;9.218;2022-12-18T00:00:15;74.70;;;25.63;;
29384;SDS011;16367;48.736;9.218;2022-12-18T00:02:18;72.47;;;22.85;;
29384;SDS011;16367;48.736;9.218;2022-12-18T00:04:23;66.15;;;21.77;;
29384;SDS011;16367;48.736;9.218;2022-12-18T00:06:27;73.95;;;19.90;;
29384;SDS011;16367;48.736;9.218;2022-12-18T00:08:31;64.38;;;19.52;;
29384;SDS011;16367;48.736;9.218;2022-12-18T00:10:34;69.82;;;24.42;;
29384;SDS011;16367;48.736;9.218;2022-12-18T00:12:37;51.13;;;18.60;;
29384;SDS011;16367;48.736;9.218;2022-12-18T00:14:40;42.75;;;16.38;;
29384;SDS011;16367;48.736;9.218;2022-12-18T00:16:47;60.05;;;19.80;;
29384;SDS011;16367;48.736;9.218;2022-12-18T00:18:51;65.32;;;22.38;;
29384;SDS011;16367;48.736;9.218;2022-12-18T00:20:57;80.63;;;24.65;;
29384;SDS011;16367;48.736;9.218;2022-12-18T00:23:01;60.05;;;20.70;;
29384;SDS011;16367;48.736;9.218;2022-12-18T00:25:04;69.47;;;20.05;;
29384;SDS011;16367;48.736;9.218;2022-12-18T00:27:06;63.63;;;21.42;;
29384;SDS011;16367;48.736;9.218;2022-12-18T00:29:10;73.10;;;20.30;;
29384;SDS011;16367;48.736;9.218;2022-12-18T00:31:15;59.97;;;20.95;;
29384;SDS011;16367;48.736;9.218;2022-12-18T00:33:19;43.95;;;15.90;;
29384;SDS011;16367;48.736;9.218;2022-12-18T00:35:22;54.38;;;17.92;;
29384;SDS011;16367;48.736;9.218;2022-12-18T00:37:26;59.95;;;18.20;;
29384;SDS011;16367;48.736;9.218;2022-12-18T00:39:29;53.55;;;19.35;;
29384;SDS011;16367;48.736;9.218;2022-12-18T00:41:32;52.25;;;17.48;;
29384;SDS011;16367;48.736;9.218;2022-12-18T00:43:53;56.83;;;19.27;;
29384;SDS011;16367;48.736;9.218;2022-12-18T00:45:56;54.90;;;18.80;;
29384;SDS011;16367;48.736;9.218;2022-12-18T00:47:59;62.25;;;22.38;;
29384;SDS011;16367;48.736;9.218;2022-12-18T00:50:02;70.10;;;21.88;;
29384;SDS011;16367;48.736;9.218;2022-12-18T00:52:05;46.20;;;18.48;;
29384;SDS011;16367;48.736;9.218;2022-12-18T00:54:09;42.22;;;14.88;;
29384;SDS011;16367;48.736;9.218;2022-12-18T00:56:12;53.35;;;19.65;;
29384;SDS011;16367;48.736;9.218;2022-12-18T00:58:15;50.30;;;18.15;;
29384;SDS011;16367;48.736;9.218;2022-12-18T01:00:19;60.85;;;21.63;;
29384;SDS011;16367;48.736;9.218;2022-12-18T01:02:21;50.70;;;18.75;;
29384;SDS011;16367;48.736;9.218;2022-12-18T01:04:24;57.67;;;19.67;;
29384;SDS011;16367;48.736;9.218;2022-12-18T01:06:27;62.75;;;21.15;;
29384;SDS011;16367;48.736;9.218;2022-12-18T01:08:29;62.03;;;19.85;;
29384;SDS011;16367;48.736;9.218;2022-12-18T01:10:34;33.25;;;12.52;;
29384;SDS011;16367;48.736;9.218;2022-12-18T01:12:36;37.53;;;12.73;;
29384;SDS011;16367;48.736;9.218;2022-12-18T01:14:39;42.03;;;15.73;;
29384;SDS011;16367;48.736;9.218;2022-12-18T01:16:42;77.78;;;20.90;;
29384;SDS011;16367;48.736;9.218;2022-12-18T01:18:45;64.43;;;18.05;;
29384;SDS011;16367;48.736;9.218;2022-12-18T01:20:48;54.35;;;15.73;;
29384;SDS011;16367;48.736;9.218;2022-12-18T01:22:51;33.92;;;15.63;;
29384;SDS011;16367;48.736;9.218;2022-12-18T01:24:53;47.33;;;15.70;;
29384;SDS011;16367;48.736;9.218;2022-12-18T01:26:58;53.55;;;16.80;;
29384;SDS011;16367;48.736;9.218;2022-12-18T01:29:00;52.80;;;18.00;;
29384;SDS011;16367;48.736;9.218;2022-12-18T01:31:10;58.75;;;20.83;;
29384;SDS011;16367;48.736;9.218;2022-12-18T01:33:17;56.97;;;17.98;;
29384;SDS011;16367;48.736;9.218;2022-12-18T01:35:20;54.00;;;17.88;;
29384;SDS011;16367;48.736;9.218;2022-12-18T01:37:23;53.72;;;17.95;;
29384;SDS011;16367;48.736;9.218;2022-12-18T01:39:26;51.50;;;17.35;;
29384;SDS011;16367;48.736;9.218;2022-12-18T01:41:30;55.40;;;20.63;;
29384;SDS011;16367;48.736;9.218;2022-12-18T01:43:56;48.58;;;17.65;;
29384;SDS011;16367;48.736;9.218;2022-12-18T01:45:59;56.38;;;20.25;;
29384;SDS011;16367;48.736;9.218;2022-12-18T01:48:03;62.90;;;22.63;;
29384;SDS011;16367;48.736;9.218;2022-12-18T01:50:09;45.95;;;18.08;;
29384;SDS011;16367;48.736;9.218;2022-12-18T01:52:15;48.17;;;17.15;;
29384;SDS011;16367;48.736;9.218;2022-12-18T01:54:19;45.85;;;20.33;;
29384;SDS011;16367;48.736;9.218;2022-12-18T01:56:22;55.28;;;16.70;;
29384;SDS011;16367;48.736;9.218;2022-12-18T01:58:27;50.30;;;17.45;;
29384;SDS011;16367;48.736;9.218;2022-12-18T02:00:36;46.38;;;16.27;;
29384;SDS011;16367;48.736;9.218;2022-12-18T02:02:39;47.65;;;15.75;;
29384;SDS011;16367;48.736;9.218;2022-12-18T02:04:42;51.50;;;17.83;;
29384;SDS011;16367;48.736;9.218;2022-12-18T02:06:50;47.08;;;17.23;;
29384;SDS011;16367;48.736;9.218;2022-12-18T02:08:58;43.95;;;17.63;;
29384;SDS011;16367;48.736;9.218;2022-12-18T02:11:11;51.05;;;15.95;;
29384;SDS011;16367;48.736;9.218;2022-12-18T02:13:22;41.50;;;14.75;;
29384;SDS011;16367;48.736;9.218;2022-12-18T02:15:36;47.28;;;16.83;;
29384;SDS011;16367;48.736;9.218;2022-12-18T02:17:43;38.22;;;15.45;;
29384;SDS011;16367;48.736;9.218;2022-12-18T02:19:54;40.13;;;14.63;;
29384;SDS011;16367;48.736;9.218;2022-12-18T02:22:11;49.95;;;17.95;;
29384;SDS011;16367;48.736;9.218;2022-12-18T02:24:28;38.28;;;14.90;;
29384;SDS011;16367;48.736;9.218;2022-12-18T02:26:37;41.00;;;14.35;;
29384;SDS011;16367;48.736;9.218;2022-12-18T02:28:46;31.00;;;12.70;;
29384;SDS011;16367;48.736;9.218;2022-12-18T02:30:55;40.10;;;14.25;;
29384;SDS011;16367;48.736;9.218;2022-12-18T02:33:01;47.72;;;16.10;;
29384;SDS011;16367;48.736;9.218;2022-12-18T02:35:08;39.60;;;13.63;;
29384;SDS011;16367;48.736;9.218;2022-12-18T02:37:14;26.52;;;11.00;;
29384;SDS011;16367;48.736;9.218;2022-12-18T02:39:19;44.58;;;13.77;;
29384;SDS011;16367;48.736;9.218;2022-12-18T02:41:24;50.00;;;17.20;;
29384;SDS011;16367;48.736;9.218;2022-12-18T02:43:29;39.35;;;14.27;;
29384;SDS011;16367;48.736;9.218;2022-12-18T02:45:32;37.60;;;13.88;;
29384;SDS011;16367;48.736;9.218;2022-12-18T02:47:36;40.80;;;14.55;;
29384;SDS011;16367;48.736;9.218;2022-12-18T02:49:42;41.53;;;13.82;;
29384;SDS011;16367;48.736;9.218;2022-12-18T02:51:50;50.63;;;15.45;;
29384;SDS011;16367;48.736;9.218;2022-12-18T02:53:56;38.35;;;12.98;;
29384;SDS011;16367;48.736;9.218;2022-12-18T02:56:09;48.53;;;15.48;;
29384;SDS011;16367;48.736;9.218;2022-12-18T02:58:20;42.17;;;14.60;;
29384;SDS011;16367;48.736;9.218;2022-12-18T03:00:31;35.20;;;13.93;;
29384;SDS011;16367;48.736;9.218;2022-12-18T03:02:41;38.47;;;13.32;;
29384;SDS011;16367;48.736;9.218;2022-12-18T03:04:49;36.60;;;14.05;;
29384;SDS011;16367;48.736;9.218;2022-12-18T03:07:00;41.70;;;15.68;;
29384;SDS011;16367;48.736;9.218;2022-12-18T03:09:08;36.97;;;13.13;;
29384;SDS011;16367;48.736;9.218;2022-12-18T03:11:13;51.33;;;17.95;;
29384;SDS011;16367;48.736;9.218;2022-12-18T03:13:18;39.33;;;13.18;;
29384;SDS011;16367;48.736;9.218;2022-12-18T03:15:27;38.58;;;14.45;;
29384;SDS011;16367;48.736;9.218;2022-12-18T03:17:33;40.90;;;14.43;;
29384;SDS011;16367;48.736;9.218;2022-12-18T03:19:37;40.50;;;13.80;;
29384;SDS011;16367;48.736;9.218;2022-12-18T03:21:42;51.30;;;16.45;;
29384;SDS011;16367;48.736;9.218;2022-12-18T03:23:48;42.63;;;13.55;;
29384;SDS011;16367;48.736;9.218;2022-12-18T03:25:54;33.92;;;13.55;;
29384;SDS011;16367;48.736;9.218;2022-12-18T03:28:07;31.75;;;13.13;;
29384;SDS011;16367;48.736;9.218;2022-12-18T03:32:19;36.53;;;13.65;;
29384;SDS011;16367;48.736;9.218;2022-12-18T03:34:30;36.55;;;14.73;;
29384;SDS011;16367;48.736;9.218;2022-12-18T03:36:36;40.33;;;15.27;;
29384;SDS011;16367;48.736;9.218;2022-12-18T03:38:38;33.75;;;12.98;;
29384;SDS011;16367;48.736;9.218;2022-12-18T03:40:46;32.38;;;13.05;;
29384;SDS011;16367;48.736;9.218;2022-12-18T03:42:57;40.30;;;13.32;;
29384;SDS011;16367;48.736;9.218;2022-12-18T03:45:06;42.58;;;16.65;;
29384;SDS011;16367;48.736;9.218;2022-12-18T03:47:13;33.95;;;15.15;;
29384;SDS011;16367;48.736;9.218;2022-12-18T03:49:18;33.33;;;14.32;;
29384;SDS011;16367;48.736;9.218;2022-12-18T03:51:30;40.63;;;14.27;;
29384;SDS011;16367;48.736;9.218;2022-12-18T03:53:41;30.13;;;13.23;;
29384;SDS011;16367;48.736;9.218;2022-12-18T03:55:50;41.78;;;12.05;;
29384;SDS011;16367;48.736;9.218;2022-12-18T03:57:54;41.67;;;12.68;;
29384;SDS011;16367;48.736;9.218;2022-12-18T03:59:58;29.33;;;12.02;;
29384;SDS011;16367;48.736;9.218;2022-12-18T04:02:04;35.50;;;12.38;;
29384;SDS011;16367;48.736;9.218;2022-12-18T04:04:09;42.42;;;14.75;;
29384;SDS011;16367;48.736;9.218;2022-12-18T04:06:14;42.92;;;14.77;;
29384;SDS011;16367;48.736;9.218;2022-12-18T04:08:20;45.40;;;14.50;;
29384;SDS011;16367;48.736;9.218;2022-12-18T04:10:24;48.45;;;16.23;;
29384;SDS011;16367;48.736;9.218;2022-12-18T04:12:26;36.47;;;13.95;;
29384;SDS011;16367;48.736;9.218;2022-12-18T04:14:31;42.50;;;17.60;;
29384;SDS011;16367;48.736;9.218;2022-12-18T04:16:36;35.13;;;13.23;;
29384;SDS011;16367;48.736;9.218;2022-12-18T04:18:39;37.20;;;13.35;;
29384;SDS011;16367;48.736;9.218;2022-12-18T04:20:42;35.05;;;13.38;;
29384;SDS011;16367;48.736;9.218;2022-12-18T04:22:45;28.30;;;10.90;;
29384;SDS011;16367;48.736;9.218;2022-12-18T04:24:49;28.45;;;11.75;;
29384;SDS011;16367;48.736;9.218;2022-12-18T04:26:52;31.25;;;11.13;;
29384;SDS011;16367;48.736;9.218;2022-12-18T04:28:54;41.22;;;12.85;;
29384;SDS011;16367;48.736;9.218;2022-12-18T04:30:57;42.60;;;16.27;;
29384;SDS011;16367;48.736;9.218;2022-12-18T04:33:00;37.50;;;13.75;;
29384;SDS011;16367;48.736;9.218;2022-12-18T04:35:03;40.72;;;12.75;;
29384;SDS011;16367;48.736;9.218;2022-12-18T04:37:07;46.85;;;16.58;;
29384;SDS011;16367;48.736;9.218;2022-12-18T04:39:10;36.42;;;13.23;;
29384;SDS011;16367;48.736;9.218;2022-12-18T04:41:14;42.70;;;13.75;;
29384;SDS011;16367;48.736;9.218;2022-12-18T04:43:17;40.20;;;14.45;;
29384;SDS011;16367;48.736;9.218;2022-12-18T04:45:20;42.45;;;14.93;;
29384;SDS011;16367;48.736;9.218;2022-12-18T04:47:22;39.85;;;14.45;;
29384;SDS011;16367;48.736;9.218;2022-12-18T04:49:25;17.45;;;7.47;;
29384;SDS011;16367;48.736;9.218;2022-12-18T04:51:28;39.30;;;14.57;;
29384;SDS011;16367;48.736;9.218;2022-12-18T04:53:31;32.63;;;12.93;;
29384;SDS011;16367;48.736;9.218;2022-12-18T04:55:34;34.67;;;12.45;;
29384;SDS011;16367;48.736;9.218;2022-12-18T04:57:38;43.85;;;14.30;;
29384;SDS011;16367;48.736;9.218;2022-12-18T04:59:41;36.83;;;13.73;;
29384;SDS011;16367;48.736;9.218;2022-12-18T05:01:44;35.65;;;10.70;;
29384;SDS011;16367;48.736;9.218;2022-12-18T05:03:47;29.63;;;11.05;;
29384;SDS011;16367;48.736;9.218;2022-12-18T05:05:50;22.63;;;9.18;;
29384;SDS011;16367;48.736;9.218;2022-12-18T05:07:53;21.75;;;8.23;;
29384;SDS011;16367;48.736;9.218;2022-12-18T05:09:56;32.15;;;10.18;;
29384;SDS011;16367;48.736;9.218;2022-12-18T05:11:58;36.95;;;13.32;;
29384;SDS011;16367;48.736;9.218;2022-12-18T05:14:02;32.72;;;12.95;;
29384;SDS011;16367;48.736;9.218;2022-12-18T05:16:06;30.33;;;10.60;;
29384;SDS011;16367;48.736;9.218;2022-12-18T05:18:09;28.98;;;10.40;;
29384;SDS011;16367;48.736;9.218;2022-12-18T05:20:12;30.05;;;11.57;;
29384;SDS011;16367;48.736;9.218;2022-12-18T05:22:14;32.45;;;12.85;;
29384;SDS011;16367;48.736;9.218;2022-12-18T05:24:18;26.13;;;11.77;;
29384;SDS011;16367;48.736;9.218;2022-12-18T05:26:20;35.25;;;13.05;;
29384;SDS011;16367;48.736;9.218;2022-12-18T05:28:23;32.70;;;13.18;;
29384;SDS011;16367;48.736;9.218;2022-12-18T05:30:29;41.47;;;13.90;;
29384;SDS011;16367;48.736;9.218;2022-12-18T05:32:31;36.25;;;14.32;;
29384;SDS011;16367;48.736;9.218;2022-12-18T05:34:34;36.65;;;13.00;;
29384;SDS011;16367;48.736;9.218;2022-12-18T05:36:37;38.78;;;12.80;;
29384;SDS011;16367;48.736;9.218;2022-12-18T05:38:40;32.22;;;12.20;;
29384;SDS011;16367;48.736;9.218;2022-12-18T05:40:43;37.25;;;13.30;;
29384;SDS011;16367;48.736;9.218;2022-12-18T05:42:45;28.17;;;11.15;;
29384;SDS011;16367;48.736;9.218;2022-12-18T05:44:48;40.25;;;12.32;;
29384;SDS011;16367;48.736;9.218;2022-12-18T05:46:52;31.58;;;12.75;;
29384;SDS011;16367;48.736;9.218;2022-12-18T05:48:58;36.83;;;13.20;;
29384;SDS011;16367;48.736;9.218;2022-12-18T05:51:05;27.90;;;12.02;;
29384;SDS011;16367;48.736;9.218;2022-12-18T05:53:10;30.23;;;11.90;;
29384;SDS011;16367;48.736;9.218;2022-12-18T05:55:13;33.13;;;11.60;;
29384;SDS011;16367;48.736;9.218;2022-12-18T05:57:15;38.58;;;13.23;;
29384;SDS011;16367;48.736;9.218;2022-12-18T05:59:18;37.60;;;10.82;;
29384;SDS011;16367;48.736;9.218;2022-12-18T06:01:22;30.52;;;10.32;;
29384;SDS011;16367;48.736;9.218;2022-12-18T06:03:27;35.65;;;11.55;;
29384;SDS011;16367;48.736;9.218;2022-12-18T06:05:34;32.72;;;12.65;;
29384;SDS011;16367;48.736;9.218;2022-12-18T06:07:38;34.05;;;13.32;;
29384;SDS011;16367;48.736;9.218;2022-12-18T06:09:41;39.47;;;13.30;;
29384;SDS011;16367;48.736;9.218;2022-12-18T06:11:44;39.70;;;14.45;;
29384;SDS011;16367;48.736;9.218;2022-12-18T06:13:46;36.22;;;13.73;;
29384;SDS011;16367;48.736;9.218;2022-12-18T06:16:01;34.40;;;11.20;;
29384;SDS011;16367;48.736;9.218;2022-12-18T06:18:04;39.08;;;13.65;;
29384;SDS011;16367;48.736;9.218;2022-12-18T06:20:09;37.88;;;12.70;;
29384;SDS011;16367;48.736;9.218;2022-12-18T06:22:12;32.58;;;10.73;;
29384;SDS011;16367;48.736;9.218;2022-12-18T06:24:14;30.08;;;12.70;;
29384;SDS011;16367;48.736;9.218;2022-12-18T06:26:17;34.22;;;13.07;;
29384;SDS011;16367;48.736;9.218;2022-12-18T06:28:28;35.90;;;14.25;;
29384;SDS011;16367;48.736;9.218;2022-12-18T06:30:30;32.17;;;12.43;;
29384;SDS011;16367;48.736;9.218;2022-12-18T06:32:33;36.65;;;12.93;;
29384;SDS011;16367;48.736;9.218;2022-12-18T06:34:36;37.40;;;11.32;;
29384;SDS011;16367;48.736;9.218;2022-12-18T06:36:41;32.63;;;12.95;;
29384;SDS011;16367;48.736;9.218;2022-12-18T06:38:44;32.30;;;12.07;;
29384;SDS011;16367;48.736;9.218;2022-12-18T06:40:46;30.92;;;10.50;;
29384;SDS011;16367;48.736;9.218;2022-12-18T06:42:49;42.83;;;15.70;;
29384;SDS011;16367;48.736;9.218;2022-12-18T06:44:52;22.63;;;9.40;;
29384;SDS011;16367;48.736;9.218;2022-12-18T06:46:54;28.23;;;11.80;;
29384;SDS011;16367;48.736;9.218;2022-12-18T06:48:57;35.50;;;12.75;;
29384;SDS011;16367;48.736;9.218;2022-12-18T06:51:00;41.25;;;13.00;;
29384;SDS011;16367;48.736;9.218;2022-12-18T06:53:05;41.78;;;15.48;;
29384;SDS011;16367;48.736;9.218;2022-12-18T06:55:08;32.45;;;13.15;;
29384;SDS011;16367;48.736;9.218;2022-12-18T06:57:10;47.45;;;15.40;;
29384;SDS011;16367;48.736;9.218;2022-12-18T06:59:13;34.97;;;12.07;;
29384;SDS011;16367;48.736;9.218;2022-12-18T07:01:16;33.22;;;13.48;;
29384;SDS011;16367;48.736;9.218;2022-12-18T07:03:19;35.15;;;14.63;;
29384;SDS011;16367;48.736;9.218;2022-12-18T07:05:22;31.92;;;13.27;;
29384;SDS011;16367;48.736;9.218;2022-12-18T07:07:25;40.13;;;13.75;;
29384;SDS011;16367;48.736;9.218;2022-12-18T07:09:29;38.20;;;14.60;;
29384;SDS011;16367;48.736;9.218;2022-12-18T07:11:32;33.97;;;12.80;;
29384;SDS011;16367;48.736;9.218;2022-12-18T07:13:35;41.08;;;13.40;;
29384;SDS011;16367;48.736;9.218;2022-12-18T07:15:38;32.78;;;12.65;;
29384;SDS011;16367;48.736;9.218;2022-12-18T07:17:41;38.88;;;13.95;;
29384;SDS011;16367;48.736;9.218;2022-12-18T07:19:44;33.22;;;14.57;;
29384;SDS011;16367;48.736;9.218;2022-12-18T07:21:46;41.28;;;13.77;;
29384;SDS011;16367;48.736;9.218;2022-12-18T07:23:49;44.67;;;14.13;;
29384;SDS011;16367;48.736;9.218;2022-12-18T07:25:53;35.53;;;14.45;;
29384;SDS011;16367;48.736;9.218;2022-12-18T07:27:56;40.10;;;13.27;;
29384;SDS011;16367;48.736;9.218;2022-12-18T07:29:59;34.90;;;14.23;;
29384;SDS011;16367;48.736;9.218;2022-12-18T07:32:01;29.05;;;12.73;;
29384;SDS011;16367;48.736;9.218;2022-12-18T07:34:04;37.08;;;12.52;;
29384;SDS011;16367;48.736;9.218;2022-12-18T07:36:07;32.50;;;11.30;;
29384;SDS011;16367;48.736;9.218;2022-12-18T07:38:11;37.53;;;11.88;;
29384;SDS011;16367;48.736;9.218;2022-12-18T07:40:14;35.78;;;12.60;;
29384;SDS011;16367;48.736;9.218;2022-12-18T07:42:18;41.22;;;13.65;;
29384;SDS011;16367;48.736;9.218;2022-12-18T07:44:33;34.78;;;15.30;;
29384;SDS011;16367;48.736;9.218;2022-12-18T07:46:36;33.65;;;13.48;;
29384;SDS011;16367;48.736;9.218;2022-12-18T07:48:38;39.15;;;12.55;;
29384;SDS011;16367;48.736;9.218;2022-12-18T07:50:41;35.47;;;11.68;;
29384;SDS011;16367;48.736;9.218;2022-12-18T07:52:44;35.33;;;12.80;;
29384;SDS011;16367;48.736;9.218;2022-12-18T07:54:47;34.33;;;11.93;;
29384;SDS011;16367;48.736;9.218;2022-12-18T07:56:50;31.85;;;13.65;;
29384;SDS011;16367;48.736;9.218;2022-12-18T07:58:55;35.22;;;12.38;;
29384;SDS011;16367;48.736;9.218;2022-12-18T08:01:02;32.63;;;14.20;;
29384;SDS011;16367;48.736;9.218;2022-12-18T08:03:06;37.05;;;12.57;;
29384;SDS011;16367;48.736;9.218;2022-12-18T08:05:09;40.45;;;14.13;;
29384;SDS011;16367;48.736;9.218;2022-12-18T08:07:12;35.90;;;13.60;;
29384;SDS011;16367;48.736;9.218;2022-12-18T08:09:15;36.25;;;14.07;;
29384;SDS011;16367;48.736;9.218;2022-12-18T08:11:18;26.98;;;10.80;;
29384;SDS011;16367;48.736;9.218;2022-12-18T08:13:21;30.88;;;12.48;;
29384;SDS011;16367;48.736;9.218;2022-12-18T08:15:26;36.20;;;13.23;;
29384;SDS011;16367;48.736;9.218;2022-12-18T08:17:28;36.15;;;13.85;;
29384;SDS011;16367;48.736;9.218;2022-12-18T08:19:31;41.00;;;13.98;;
29384;SDS011;16367;48.736;9.218;2022-12-18T08:21:34;31.13;;;11.55;;
29384;SDS011;16367;48.736;9.218;2022-12-18T08:23:37;27.60;;;11.07;;
29384;SDS011;16367;48.736;9.218;2022-12-18T08:25:43;37.33;;;12.90;;
29384;SDS011;16367;48.736;9.218;2022-12-18T08:27:46;35.67;;;13.13;;
29384;SDS011;16367;48.736;9.218;2022-12-18T08:29:49;33.42;;;14.05;;
29384;SDS011;16367;48.736;9.218;2022-12-18T08:31:53;45.58;;;13.73;;
29384;SDS011;16367;48.736;9.218;2022-12-18T08:33:56;43.28;;;14.82;;
29384;SDS011;16367;48.736;9.218;2022-12-18T08:35:59;51.08;;;18.98;;
29384;SDS011;16367;48.736;9.218;2022-12-18T08:38:02;43.00;;;15.60;;
29384;SDS011;16367;48.736;9.218;2022-12-18T08:40:06;37.83;;;16.27;;
29384;SDS011;16367;48.736;9.218;2022-12-18T08:42:10;35.38;;;14.93;;
29384;SDS011;16367;48.736;9.218;2022-12-18T08:44:31;31.30;;;12.13;;
29384;SDS011;16367;48.736;9.218;2022-12-18T08:46:40;35.13;;;13.70;;
29384;SDS011;16367;48.736;9.218;2022-12-18T08:48:46;32.42;;;14.43;;
29384;SDS011;16367;48.736;9.218;2022-12-18T08:50:53;36.83;;;12.20;;
29384;SDS011;16367;48.736;9.218;2022-12-18T08:52:56;32.17;;;12.95;;
29384;SDS011;16367;48.736;9.218;2022-12-18T08:54:59;31.58;;;13.82;;
29384;SDS011;16367;48.736;9.218;2022-12-18T08:57:02;31.88;;;13.40;;
29384;SDS011;16367;48.736;9.218;2022-12-18T08:59:05;36.78;;;15.52;;
29384;SDS011;16367;48.736;9.218;2022-12-18T09:01:08;36.17;;;15.20;;
29384;SDS011;16367;48.736;9.218;2022-12-18T09:03:13;35.53;;;14.18;;
29384;SDS011;16367;48.736;9.218;2022-12-18T09:05:17;34.10;;;14.43;;
29384;SDS011;16367;48.736;9.218;2022-12-18T09:07:20;32.47;;;13.48;;
29384;SDS011;16367;48.736;9.218;2022-12-18T09:09:23;38.92;;;15.27;;
29384;SDS011;16367;48.736;9.218;2022-12-18T09:11:26;34.60;;;14.27;;
29384;SDS011;16367;48.736;9.218;2022-12-18T09:13:30;35.08;;;14.43;;
29384;SDS011;16367;48.736;9.218;2022-12-18T09:15:33;36.55;;;14.05;;
29384;SDS011;16367;48.736;9.218;2022-12-18T09:17:36;40.42;;;17.70;;
29384;SDS011;16367;48.736;9.218;2022-12-18T09:19:38;39.67;;;15.00;;
29384;SDS011;16367;48.736;9.218;2022-12-18T09:21:42;38.10;;;16.02;;
29384;SDS011;16367;48.736;9.218;2022-12-18T09:23:49;39.65;;;16.42;;
29384;SDS011;16367;48.736;9.218;2022-12-18T09:25:57;35.58;;;13.80;;
29384;SDS011;16367;48.736;9.218;2022-12-18T09:28:01;38.65;;;15.15;;
29384;SDS011;16367;48.736;9.218;2022-12-18T09:30:04;35.22;;;15.20;;
29384;SDS011;16367;48.736;9.218;2022-12-18T09:32:08;34.33;;;14.55;;
29384;SDS011;16367;48.736;9.218;2022-12-18T09:34:10;32.83;;;12.85;;
29384;SDS011;16367;48.736;9.218;2022-12-18T09:36:14;30.88;;;13.02;;
29384;SDS011;16367;48.736;9.218;2022-12-18T09:38:20;30.52;;;12.73;;
29384;SDS011;16367;48.736;9.218;2022-12-18T09:40:25;31.38;;;12.88;;
29384;SDS011;16367;48.736;9.218;2022-12-18T09:42:31;32.78;;;12.85;;
29384;SDS011;16367;48.736;9.218;2022-12-18T09:44:35;33.35;;;13.55;;
29384;SDS011;16367;48.736;9.218;2022-12-18T09:46:46;30.20;;;13.20;;
29384;SDS011;16367;48.736;9.218;2022-12-18T09:48:54;27.90;;;12.13;;
29384;SDS011;16367;48.736;9.218;2022-12-18T09:51:00;33.53;;;13.77;;
29384;SDS011;16367;48.736;9.218;2022-12-18T09:53:06;30.60;;;12.27;;
29384;SDS011;16367;48.736;9.218;2022-12-18T09:55:17;36.38;;;14.10;;
29384;SDS011;16367;48.736;9.218;2022-12-18T09:57:28;34.75;;;14.55;;
29384;SDS011;16367;48.736;9.218;2022-12-18T09:59:36;43.00;;;15.27;;
29384;SDS011;16367;48.736;9.218;2022-12-18T10:01:40;32.83;;;12.43;;
29384;SDS011;16367;48.736;9.218;2022-12-18T10:03:46;37.55;;;15.40;;
29384;SDS011;16367;48.736;9.218;2022-12-18T10:05:52;41.15;;;16.58;;
29384;SDS011;16367;48.736;9.218;2022-12-18T10:08:04;36.83;;;14.90;;
29384;SDS011;16367;48.736;9.218;2022-12-18T10:10:16;35.60;;;14.70;;
29384;SDS011;16367;48.736;9.218;2022-12-18T10:12:29;45.00;;;18.27;;
29384;SDS011;16367;48.736;9.218;2022-12-18T10:14:40;41.53;;;16.50;;
29384;SDS011;16367;48.736;9.218;2022-12-18T10:16:52;34.25;;;12.50;;
29384;SDS011;16367;48.736;9.218;2022-12-18T10:19:03;41.20;;;13.95;;
29384;SDS011;16367;48.736;9.218;2022-12-18T10:21:18;35.13;;;14.65;;
29384;SDS011;16367;48.736;9.218;2022-12-18T10:23:25;19.27;;;9.10;;
29384;SDS011;16367;48.736;9.218;2022-12-18T10:25:33;39.80;;;14.48;;
29384;SDS011;16367;48.736;9.218;2022-12-18T10:27:42;25.42;;;9.60;;
29384;SDS011;16367;48.736;9.218;2022-12-18T10:29:45;38.30;;;14.40;;
29384;SDS011;16367;48.736;9.218;2022-12-18T10:31:48;24.92;;;9.90;;
29384;SDS011;16367;48.736;9.218;2022-12-18T10:33:51;37.40;;;13.20;;
29384;SDS011;16367;48.736;9.218;2022-12-18T10:35:57;35.85;;;13.20;;
29384;SDS011;16367;48.736;9.218;2022-12-18T10:38:04;35.63;;;13.07;;
29384;SDS011;16367;48.736;9.218;2022-12-18T10:40:10;34.92;;;12.48;;
29384;SDS011;16367;48.736;9.218;2022-12-18T10:42:24;34.33;;;10.93;;
29384;SDS011;16367;48.736;9.218;2022-12-18T10:44:26;36.33;;;14.15;;
29384;SDS011;16367;48.736;9.218;2022-12-18T10:46:29;34.60;;;12.23;;
29384;SDS011;16367;48.736;9.218;2022-12-18T10:48:33;29.17;;;10.63;;
29384;SDS011;16367;48.736;9.218;2022-12-18T10:50:38;37.22;;;13.82;;
29384;SDS011;16367;48.736;9.218;2022-12-18T10:53:02;37.55;;;13.00;;
29384;SDS011;16367;48.736;9.218;2022-12-18T10:55:13;41.85;;;14.57;;
29384;SDS011;16367;48.736;9.218;2022-12-18T10:57:33;33.38;;;13.88;;
29384;SDS011;16367;48.736;9.218;2022-12-18T10:59:38;37.05;;;13.02;;
29384;SDS011;16367;48.736;9.218;2022-12-18T11:01:53;37.08;;;12.27;;
29384;SDS011;16367;48.736;9.218;2022-12-18T11:03:59;24.35;;;9.98;;
29384;SDS011;16367;48.736;9.218;2022-12-18T11:06:05;36.03;;;13.70;;
29384;SDS011;16367;48.736;9.218;2022-12-18T11:08:18;34.38;;;13.10;;
29384;SDS011;16367;48.736;9.218;2022-12-18T11:10:25;34.08;;;13.25;;
29384;SDS011;16367;48.736;9.218;2022-12-18T11:12:31;35.60;;;12.05;;
29384;SDS011;16367;48.736;9.218;2022-12-18T11:14:41;35.28;;;13.05;;
29384;SDS011;16367;48.736;9.218;2022-12-18T11:16:48;36.33;;;12.90;;
29384;SDS011;16367;48.736;9.218;2022-12-18T11:19:19;29.40;;;13.68;;
29384;SDS011;16367;48.736;9.218;2022-12-18T11:21:32;31.55;;;12.45;;
29384;SDS011;16367;48.736;9.218;2022-12-18T11:23:45;29.50;;;10.70;;
29384;SDS011;16367;48.736;9.218;2022-12-18T11:25:51;29.65;;;10.30;;
29384;SDS011;16367;48.736;9.218;2022-12-18T11:27:57;31.45;;;10.30;;
29384;SDS011;16367;48.736;9.218;2022-12-18T11:30:08;26.63;;;11.23;;
29384;SDS011;16367;48.736;9.218;2022-12-18T11:32:19;22.95;;;9.35;;
29384;SDS011;16367;48.736;9.218;2022-12-18T11:34:28;17.60;;;6.85;;
29384;SDS011;16367;48.736;9.218;2022-12-18T11:36:36;28.85;;;10.82;;
29384;SDS011;16367;48.736;9.218;2022-12-18T11:38:41;27.63;;;9.32;;
29384;SDS011;16367;48.736;9.218;2022-12-18T11:40:47;33.60;;;11.63;;
29384;SDS011;16367;48.736;9.218;2022-12-18T11:43:00;42.63;;;13.63;;
29384;SDS011;16367;48.736;9.218;2022-12-18T11:45:18;32.58;;;10.73;;
29384;SDS011;16367;48.736;9.218;2022-12-18T11:47:28;33.17;;;12.07;;
29384;SDS011;16367;48.736;9.218;2022-12-18T11:49:39;28.17;;;10.27;;
29384;SDS011;16367;48.736;9.218;2022-12-18T11:51:48;26.23;;;10.30;;
29384;SDS011;16367;48.736;9.218;2022-12-18T11:53:56;31.35;;;12.25;;
29384;SDS011;16367;48.736;9.218;2022-12-18T11:56:01;35.20;;;13.88;;
29384;SDS011;16367;48.736;9.218;2022-12-18T11:58:17;34.67;;;13.05;;
29384;SDS011;16367;48.736;9.218;2022-12-18T12:00:32;33.88;;;12.00;;
29384;SDS011;16367;48.736;9.218;2022-12-18T12:02:46;37.78;;;13.43;;
29384;SDS011;16367;48.736;9.218;2022-12-18T12:05:21;36.17;;;12.55;;
29384;SDS011;16367;48.736;9.218;2022-12-18T12:07:35;29.85;;;13.52;;
29384;SDS011;16367;48.736;9.218;2022-12-18T12:09:47;32.15;;;13.13;;
29384;SDS011;16367;48.736;9.218;2022-12-18T12:12:01;35.50;;;12.27;;
29384;SDS011;16367;48.736;9.218;2022-12-18T12:14:23;32.50;;;10.82;;
29384;SDS011;16367;48.736;9.218;2022-12-18T12:18:55;30.33;;;11.10;;